Rocky Point, North Carolina
Current Conditions -  °F | °C
As of 4:53 AM on Thursday 23 Oct 2014 (Local Time) from KILM Reporting Station
Clear Clear  
Wind Chill: 44°   Ceiling: Unl
Heat Index: 48°   Visibility: 10mi
Dew Point: 42°   Wind: 8mph
Humidity: 80%   Direction: 330°NNW
Pressure: 29.99"   Gusts: NA
Location:  34.43°N, 77.89°W
Report Text: KILM 230853Z AUTO 33007KT 10SM CLR 09/06 A2999 RMK AO2 SLP156 T00890056 58006
Loading
Personal Weather Stations






























Interactive Weather Map
Tropical Storm Tracking
New forecast layout! Learn more

10-Day Weather Forecast

Advertisements
Track Severe Weather on mobile